Time;durP1;ratioP1;P1;durP2;ratioP2;P2;SDS_P1;SDS_P2;PMS_P1;PMS_P2;Temp;Humidity;BMP_temperature;BMP_pressure;BME280_temperature;BME280_humidity;BME280_pressure;Samples;Min_cycle;Max_cycle;Signal;HPM_P1;HPM_P2
2021/01/14 02:21:07;;;;;;;3.63;2.57;;;1.10;99.90;;;;;;665330;23;21923;31
2021/01/14 02:24:13;;;;;;;2.70;2.10;;;1.10;99.90;;;;;;4897711;29;20493;-93
2021/01/14 02:33:16;;;;;;;4.63;2.80;;;1.00;99.90;;;;;;4898212;29;20573;-92
2021/01/14 02:48:06;;;;;;;8.17;2.17;;;1.00;99.90;;;;;;4904366;29;20470;-92
2021/01/14 02:53:29;;;;;;;8.13;2.90;;;0.90;99.90;;;;;;4905222;29;20839;-92
2021/01/14 03:13:27;;;;;;;4.90;2.50;;;0.70;99.90;;;;;;4884516;29;20454;-92
2021/01/14 03:18:57;;;;;;;7.67;2.67;;;0.60;99.90;;;;;;4885772;29;20458;-92
2021/01/14 03:24:10;;;;;;;6.10;2.27;;;0.60;99.90;;;;;;4915239;29;20553;-92
2021/01/14 03:26:39;;;;;;;6.47;2.30;;;0.50;99.90;;;;;;4906921;29;20473;-92
2021/01/14 03:29:09;;;;;;;7.00;2.60;;;0.50;99.90;;;;;;4924098;29;20514;-92
2021/01/14 03:31:38;;;;;;;6.10;3.03;;;0.50;99.90;;;;;;4924057;29;20476;-91
2021/01/14 03:34:08;;;;;;;2.60;2.40;;;0.60;99.90;;;;;;4923152;29;20481;-91
2021/01/14 03:39:29;;;;;;;9.10;2.77;;;0.60;99.90;;;;;;4923984;29;20479;-91
2021/01/14 03:41:59;;;;;;;10.27;2.37;;;0.60;99.90;;;;;;4923752;29;20473;-92
2021/01/14 03:44:26;;;;;;;9.93;3.10;;;0.60;99.90;;;;;;4924605;29;20887;-92
2021/01/14 03:46:53;;;;;;;9.00;2.33;;;0.60;99.90;;;;;;4923597;29;20465;-91
2021/01/14 03:52:43;;;;;;;4.27;2.63;;;0.70;99.90;;;;;;4920389;29;20425;-91
2021/01/14 03:55:10;;;;;;;15.33;3.10;;;0.60;99.90;;;;;;4909188;29;20467;-91
2021/01/14 03:57:37;;;;;;;7.90;2.73;;;0.60;99.90;;;;;;4923178;29;20760;-91
2021/01/14 04:00:06;;;;;;;6.97;2.97;;;0.70;99.90;;;;;;4910914;29;20470;-91
2021/01/14 04:02:33;;;;;;;6.17;2.60;;;0.60;99.90;;;;;;4904414;29;20895;-92
2021/01/14 04:05:00;;;;;;;9.17;2.57;;;0.60;99.90;;;;;;4904391;29;20462;-91
2021/01/14 04:07:27;;;;;;;7.20;2.33;;;0.70;99.90;;;;;;4918953;29;20761;-91
2021/01/14 04:09:55;;;;;;;6.90;2.90;;;0.70;99.90;;;;;;4922739;29;20458;-91
2021/01/14 04:12:31;;;;;;;6.83;2.63;;;0.60;99.90;;;;;;4910081;29;20455;-91
2021/01/14 04:14:58;;;;;;;4.33;2.70;;;0.60;99.90;;;;;;4903843;29;20593;-91
2021/01/14 04:17:25;;;;;;;5.87;2.50;;;0.70;99.90;;;;;;4912961;29;20480;-91
2021/01/14 04:19:52;;;;;;;13.23;4.70;;;0.60;99.90;;;;;;4922487;29;20460;-91
2021/01/14 04:22:19;;;;;;;7.70;3.07;;;0.60;99.90;;;;;;4919413;29;20625;-91
2021/01/14 04:24:46;;;;;;;3.60;2.70;;;0.60;99.90;;;;;;4904136;29;20553;-91
2021/01/14 04:27:14;;;;;;;9.80;2.80;;;0.60;99.90;;;;;;4903829;29;20484;-91
2021/01/14 04:29:40;;;;;;;3.73;2.50;;;0.60;99.90;;;;;;4904267;29;20497;-91
2021/01/14 04:32:07;;;;;;;4.20;2.13;;;0.60;99.90;;;;;;4903957;29;20735;-91
2021/01/14 04:34:34;;;;;;;7.30;2.93;;;0.60;99.90;;;;;;4903730;29;20545;-91
2021/01/14 04:37:03;;;;;;;5.03;3.40;;;0.60;99.90;;;;;;4886754;29;20489;-91
2021/01/14 04:39:30;;;;;;;5.93;3.10;;;0.60;99.90;;;;;;4903084;29;20981;-91
2021/01/14 04:41:58;;;;;;;9.10;4.10;;;0.60;99.90;;;;;;4904185;29;20433;-91
2021/01/14 04:44:28;;;;;;;8.93;3.47;;;0.50;99.90;;;;;;4902794;29;20780;-91
2021/01/14 04:47:02;;;;;;;9.37;2.90;;;0.50;99.90;;;;;;4909416;29;20461;-91
2021/01/14 04:49:29;;;;;;;6.43;3.17;;;0.50;99.90;;;;;;4922204;29;20477;-91
2021/01/14 04:52:02;;;;;;;7.03;3.17;;;0.50;99.90;;;;;;4922201;29;20906;-91
2021/01/14 04:54:33;;;;;;;7.93;3.10;;;0.50;99.90;;;;;;4923000;29;20691;-91
2021/01/14 04:57:04;;;;;;;7.30;2.97;;;0.50;99.90;;;;;;4922173;29;20461;-91
2021/01/14 04:59:37;;;;;;;9.73;3.23;;;0.40;99.90;;;;;;4922295;29;20447;-91
2021/01/14 05:02:08;;;;;;;10.40;2.83;;;0.50;99.90;;;;;;4922265;29;20477;-91
2021/01/14 05:04:42;;;;;;;6.63;3.10;;;0.40;99.90;;;;;;4922819;29;20762;-91
2021/01/14 05:07:10;;;;;;;6.47;3.00;;;0.50;99.90;;;;;;4920162;29;20548;-91
2021/01/14 05:09:39;;;;;;;9.87;3.07;;;0.50;99.90;;;;;;4920991;29;20461;-91
2021/01/14 05:12:08;;;;;;;6.50;2.10;;;0.50;99.90;;;;;;4921724;29;20489;-91
2021/01/14 05:14:38;;;;;;;4.10;2.30;;;0.50;99.90;;;;;;4922167;29;20576;-91
2021/01/14 05:17:04;;;;;;;3.80;2.50;;;0.50;99.90;;;;;;4921856;29;20539;-91
2021/01/14 05:19:31;;;;;;;7.03;3.00;;;0.50;99.90;;;;;;4922128;29;20483;-91
2021/01/14 05:22:01;;;;;;;7.07;2.40;;;0.50;99.90;;;;;;4921424;29;20535;-91
2021/01/14 05:24:28;;;;;;;9.03;2.60;;;0.50;99.90;;;;;;4921310;29;20469;-91
2021/01/14 05:26:55;;;;;;;6.77;3.30;;;0.40;99.90;;;;;;4903265;29;20572;-91
2021/01/14 05:29:22;;;;;;;6.30;3.77;;;0.40;99.90;;;;;;4902721;29;20931;-91
2021/01/14 05:31:50;;;;;;;7.07;2.80;;;0.40;99.90;;;;;;4903143;29;20483;-91
2021/01/14 05:34:18;;;;;;;8.70;3.00;;;0.50;99.90;;;;;;4902914;29;20449;-91
2021/01/14 05:36:55;;;;;;;6.67;3.00;;;0.40;99.90;;;;;;4902283;29;20484;-91
2021/01/14 05:39:23;;;;;;;6.93;4.63;;;0.40;99.90;;;;;;4902506;29;20432;-91
2021/01/14 05:41:50;;;;;;;5.20;2.83;;;0.40;99.90;;;;;;4902740;29;20803;-91
2021/01/14 05:44:18;;;;;;;7.50;2.67;;;0.40;99.90;;;;;;4910661;29;20534;-91
2021/01/14 05:46:45;;;;;;;8.07;2.50;;;0.40;99.90;;;;;;4921030;29;20477;-91
2021/01/14 05:49:13;;;;;;;6.47;3.67;;;0.40;99.90;;;;;;4921044;29;20498;-91
2021/01/14 05:51:41;;;;;;;6.30;4.27;;;0.40;99.90;;;;;;4921065;29;20778;-91
2021/01/14 05:54:09;;;;;;;12.97;6.03;;;0.40;99.90;;;;;;4902687;29;20841;-91
2021/01/14 05:56:42;;;;;;;14.50;7.00;;;0.40;99.90;;;;;;4902175;29;20481;-91
2021/01/14 05:59:11;;;;;;;8.40;6.33;;;0.40;99.90;;;;;;4902231;29;20839;-91
2021/01/14 06:01:39;;;;;;;10.57;5.27;;;0.40;99.90;;;;;;4902122;29;20456;-91
2021/01/14 06:04:25;;;;;;;7.73;4.73;;;0.40;99.90;;;;;;4901825;29;20475;-91
2021/01/14 06:06:53;;;;;;;8.10;3.40;;;0.40;99.90;;;;;;4901633;29;20504;-91
2021/01/14 06:09:22;;;;;;;5.20;3.70;;;0.30;99.90;;;;;;4902225;29;20878;-91
2021/01/14 06:11:50;;;;;;;8.10;3.10;;;0.30;99.90;;;;;;4905707;29;20917;-91
2021/01/14 06:14:32;;;;;;;11.70;4.03;;;0.40;99.90;;;;;;4902707;29;20448;-91
2021/01/14 06:17:00;;;;;;;6.73;3.43;;;0.40;99.90;;;;;;4900938;29;20560;-91
2021/01/14 06:19:29;;;;;;;5.73;3.93;;;0.30;99.90;;;;;;4906144;29;20857;-91
2021/01/14 06:21:57;;;;;;;10.20;3.30;;;0.30;99.90;;;;;;4923747;29;20813;-91
2021/01/14 06:24:26;;;;;;;15.30;3.77;;;0.40;99.90;;;;;;4911810;29;20493;-91
2021/01/14 06:26:54;;;;;;;7.17;3.80;;;0.40;99.90;;;;;;4906046;29;20566;-91
2021/01/14 06:29:23;;;;;;;5.90;4.17;;;0.30;99.90;;;;;;4905891;29;20890;-91
2021/01/14 06:31:50;;;;;;;9.07;3.90;;;0.30;99.90;;;;;;4906297;29;20955;-91
2021/01/14 06:34:20;;;;;;;12.73;3.93;;;0.30;99.90;;;;;;4911651;29;20569;-91
2021/01/14 06:36:49;;;;;;;8.10;3.80;;;0.30;99.90;;;;;;4924721;29;20476;-91
2021/01/14 06:39:19;;;;;;;5.57;3.50;;;0.30;99.90;;;;;;4920721;29;20553;-91
2021/01/14 06:41:47;;;;;;;8.73;3.60;;;0.30;99.90;;;;;;4915542;29;20439;-91
2021/01/14 06:44:16;;;;;;;10.27;3.27;;;0.30;99.90;;;;;;4924636;29;20453;-91
2021/01/14 06:46:43;;;;;;;7.47;2.73;;;0.30;99.90;;;;;;4915919;29;20498;-91
2021/01/14 06:49:13;;;;;;;7.67;3.77;;;0.30;99.90;;;;;;4908820;29;20979;-91
2021/01/14 06:51:56;;;;;;;5.90;3.50;;;0.30;99.90;;;;;;4923507;29;20461;-91
2021/01/14 06:54:24;;;;;;;8.47;3.17;;;0.30;99.90;;;;;;4923812;29;20451;-91
2021/01/14 06:56:57;;;;;;;9.30;3.40;;;0.30;99.90;;;;;;4923872;29;20505;-91
2021/01/14 06:59:26;;;;;;;7.03;2.70;;;0.20;99.90;;;;;;4924376;29;20449;-92
2021/01/14 07:02:46;;;;;;;8.30;3.00;;;0.20;99.90;;;;;;4924657;29;20460;-91
2021/01/14 07:11:32;;;;;;;6.83;3.47;;;0.20;99.90;;;;;;4921575;29;20568;-91
2021/01/14 07:17:19;;;;;;;11.87;4.27;;;0.20;99.90;;;;;;4847312;29;20452;-92
2021/01/14 07:20:15;;;;;;;7.80;3.40;;;0.20;99.90;;;;;;4923493;29;20531;-91
2021/01/14 07:22:51;;;;;;;9.67;3.63;;;0.20;99.90;;;;;;4890951;29;20914;-91
2021/01/14 07:25:19;;;;;;;10.00;4.33;;;0.10;99.90;;;;;;4924221;29;20548;-92
2021/01/14 07:27:54;;;;;;;6.17;3.67;;;0.10;99.90;;;;;;4924175;29;20474;-91
2021/01/14 07:30:22;;;;;;;5.40;3.00;;;0.20;99.90;;;;;;4922908;29;20468;-91
2021/01/14 07:32:57;;;;;;;7.40;2.97;;;0.10;99.90;;;;;;4923681;29;20840;-91
2021/01/14 07:35:42;;;;;;;5.50;2.83;;;0.10;99.90;;;;;;4923576;29;20471;-91
2021/01/14 07:38:24;;;;;;;5.97;3.57;;;0.20;99.90;;;;;;4923825;29;20471;-91
2021/01/14 07:41:00;;;;;;;6.70;3.43;;;0.20;99.90;;;;;;4923649;29;20447;-91
2021/01/14 07:46:32;;;;;;;7.60;3.67;;;0.20;99.90;;;;;;4919532;29;20449;-91
2021/01/14 07:49:00;;;;;;;5.17;4.53;;;0.20;99.90;;;;;;4924057;29;20469;-92
2021/01/14 07:57:38;;;;;;;10.73;4.17;;;0.30;99.90;;;;;;4921040;29;20473;-91
2021/01/14 08:01:06;;;;;;;7.87;4.20;;;0.30;99.90;;;;;;4923348;29;20217;-91
2021/01/14 08:04:16;;;;;;;4.67;3.77;;;0.20;99.90;;;;;;4903427;29;20875;-91
2021/01/14 08:06:45;;;;;;;5.50;3.63;;;0.30;99.90;;;;;;4817549;29;20462;-90
2021/01/14 08:09:17;;;;;;;12.30;3.30;;;0.30;99.90;;;;;;4922001;29;20560;-91
2021/01/14 08:11:57;;;;;;;11.40;4.43;;;0.30;99.90;;;;;;4923248;29;20444;-92
2021/01/14 08:14:36;;;;;;;7.80;3.10;;;0.30;99.90;;;;;;4922855;29;20774;-90
2021/01/14 08:17:23;;;;;;;7.50;3.10;;;0.30;99.90;;;;;;4923384;29;20480;-90
2021/01/14 08:19:54;;;;;;;4.87;3.40;;;0.40;99.90;;;;;;4922989;29;20531;-91
2021/01/14 08:22:25;;;;;;;5.20;3.30;;;0.40;99.90;;;;;;4922704;29;20502;-91
2021/01/14 08:25:17;;;;;;;13.37;4.33;;;0.50;99.90;;;;;;4922712;29;20473;-91
2021/01/14 08:28:16;;;;;;;4.63;3.70;;;0.50;99.90;;;;;;4922740;29;20469;-91
2021/01/14 08:30:54;;;;;;;5.93;3.20;;;0.50;99.90;;;;;;4922852;29;20449;-91
2021/01/14 08:33:44;;;;;;;4.20;2.83;;;0.50;99.90;;;;;;4922537;29;20477;-90
2021/01/14 08:36:13;;;;;;;6.67;3.43;;;0.50;99.90;;;;;;4921844;29;20556;-91
2021/01/14 08:38:39;;;;;;;13.47;4.77;;;0.60;99.90;;;;;;4922208;29;20452;-91
2021/01/14 08:41:27;;;;;;;5.63;3.67;;;0.60;99.90;;;;;;4921610;29;20480;-91
2021/01/14 08:44:02;;;;;;;7.50;4.63;;;0.50;99.90;;;;;;4922196;29;20800;-90
2021/01/14 08:46:39;;;;;;;8.23;5.23;;;0.50;99.90;;;;;;4922336;29;20488;-90
2021/01/14 08:49:15;;;;;;;8.53;4.73;;;0.50;99.90;;;;;;4922230;29;20476;-91
2021/01/14 08:51:43;;;;;;;7.60;5.13;;;0.50;99.90;;;;;;4922628;29;20497;-90
2021/01/14 08:54:14;;;;;;;10.73;5.77;;;0.60;99.90;;;;;;4922688;29;20571;-92
2021/01/14 08:56:53;;;;;;;14.93;6.07;;;0.50;99.90;;;;;;4921082;29;20536;-92
2021/01/14 08:59:22;;;;;;;8.53;5.90;;;0.60;99.90;;;;;;4921783;29;20746;-91
2021/01/14 09:01:50;;;;;;;13.50;5.40;;;0.70;99.90;;;;;;4922279;29;20481;-91
2021/01/14 09:04:26;;;;;;;8.00;5.80;;;0.60;99.90;;;;;;4922078;29;20568;-90
2021/01/14 09:07:07;;;;;;;6.37;5.40;;;0.60;99.90;;;;;;4921135;29;20899;-91
2021/01/14 09:09:34;;;;;;;7.00;5.27;;;0.70;99.90;;;;;;4921844;29;20477;-91
2021/01/14 09:12:01;;;;;;;5.00;4.50;;;0.70;99.90;;;;;;4921910;29;20496;-91
2021/01/14 09:14:28;;;;;;;6.47;4.27;;;0.70;99.90;;;;;;4922338;29;21016;-91
2021/01/14 09:16:55;;;;;;;7.00;4.50;;;0.70;99.90;;;;;;4921739;29;20473;-90
2021/01/14 09:19:25;;;;;;;5.40;4.63;;;0.70;99.90;;;;;;4921667;29;20480;-91
2021/01/14 09:22:10;;;;;;;5.23;4.70;;;0.70;99.90;;;;;;4921684;29;20540;-91
2021/01/14 09:27:51;;;;;;;6.10;4.60;;;0.90;99.90;;;;;;4921277;29;20468;-91
2021/01/14 09:36:34;;;;;;;4.43;4.03;;;0.90;99.90;;;;;;4914049;29;20500;-91
2021/01/14 09:39:41;;;;;;;8.60;4.73;;;1.00;99.90;;;;;;4921279;29;20484;-91
2021/01/14 09:42:42;;;;;;;7.47;4.70;;;1.10;99.90;;;;;;4921423;29;20569;-91
2021/01/14 09:45:12;;;;;;;10.30;4.23;;;1.30;99.90;;;;;;4921090;29;20766;-92
2021/01/14 09:47:39;;;;;;;10.73;4.10;;;1.50;99.90;;;;;;4921311;29;20484;-92
2021/01/14 10:58:03;;;;;;;6.03;3.43;;;2.10;1.00;;;;;;665324;23;22024;-86
2021/01/14 11:00:36;;;;;;;4.40;3.90;;;2.10;1.00;;;;;;4918913;29;20488;-92
2021/01/14 11:03:05;;;;;;;3.90;3.40;;;2.30;1.00;;;;;;4921147;29;20574;-92
2021/01/14 11:05:46;;;;;;;6.20;4.40;;;2.50;1.00;;;;;;4923311;29;20543;-92
2021/01/14 11:08:15;;;;;;;5.43;4.00;;;2.60;1.00;;;;;;4909415;29;20538;-92
2021/01/14 11:10:44;;;;;;;3.90;3.50;;;2.80;1.00;;;;;;4925129;29;20981;-92
2021/01/14 11:37:34;;;;;;;4.80;3.37;;;3.30;1.00;;;;;;665553;23;21930;-86
2021/01/14 11:40:08;;;;;;;4.00;3.60;;;3.20;1.00;;;;;;4921748;29;20493;-91
2021/01/14 12:11:11;;;;;;;4.70;3.00;;;4.80;1.00;;;;;;4920719;29;20499;-91
2021/01/14 12:13:39;;;;;;;8.87;4.83;;;4.60;1.00;;;;;;4922743;29;20480;-90
2021/01/14 12:16:10;;;;;;;4.80;3.90;;;4.40;1.00;;;;;;4922741;29;20499;-91
2021/01/14 12:18:38;;;;;;;4.43;3.70;;;4.30;1.00;;;;;;4922354;29;20500;-91
2021/01/14 12:21:05;;;;;;;8.23;4.10;;;4.70;1.00;;;;;;4923344;29;20485;-91
2021/01/14 12:23:33;;;;;;;6.53;4.10;;;5.00;1.00;;;;;;4922973;29;20489;-91
2021/01/14 12:26:00;;;;;;;3.90;3.60;;;5.40;1.00;;;;;;4922587;29;20508;-91
2021/01/14 12:28:28;;;;;;;6.37;3.80;;;5.30;1.00;;;;;;4922748;29;20549;-91
2021/01/14 12:30:55;;;;;;;5.60;4.00;;;4.80;1.00;;;;;;4922833;29;20468;-91
2021/01/14 12:33:25;;;;;;;5.30;4.17;;;4.60;1.00;;;;;;4921871;29;20473;-92
2021/01/14 12:35:51;;;;;;;4.37;3.67;;;4.30;1.00;;;;;;4919369;29;20469;-91
2021/01/14 12:38:18;;;;;;;6.30;4.03;;;4.20;1.00;;;;;;4922233;29;20461;-91
2021/01/14 12:40:46;;;;;;;6.10;3.80;;;4.30;1.00;;;;;;4921078;29;20536;-91
2021/01/14 12:43:12;;;;;;;6.27;3.40;;;4.60;1.00;;;;;;4923035;29;20466;-91
2021/01/14 12:45:40;;;;;;;5.10;3.77;;;4.30;1.00;;;;;;4922325;29;20468;-91
2021/01/14 12:48:10;;;;;;;3.80;3.30;;;4.20;1.00;;;;;;4922536;29;20448;-91
2021/01/14 12:50:44;;;;;;;6.03;4.40;;;4.10;1.00;;;;;;4922171;29;20459;-91
2021/01/14 12:53:11;;;;;;;5.27;4.03;;;4.30;1.00;;;;;;4922896;29;20481;-91
2021/01/14 12:55:40;;;;;;;5.10;3.93;;;4.40;1.00;;;;;;4922017;29;20501;-91
2021/01/14 12:58:07;;;;;;;6.43;3.77;;;4.40;1.00;;;;;;4922339;29;20473;-91
2021/01/14 13:00:34;;;;;;;4.90;4.00;;;4.50;1.00;;;;;;4922907;29;20484;-91
2021/01/14 13:03:02;;;;;;;4.33;3.93;;;4.50;1.00;;;;;;4922408;29;20498;-91
2021/01/14 13:05:32;;;;;;;4.27;3.90;;;4.50;1.00;;;;;;4921873;29;20470;-91
2021/01/14 13:08:02;;;;;;;6.10;4.23;;;4.70;1.00;;;;;;4903815;29;20478;-91
2021/01/14 13:10:29;;;;;;;6.60;4.23;;;5.10;1.00;;;;;;4912865;29;20495;-91
2021/01/14 13:12:57;;;;;;;4.60;4.07;;;5.00;1.00;;;;;;4921866;29;20463;-92
2021/01/14 13:15:24;;;;;;;5.73;4.20;;;4.50;1.00;;;;;;4922605;29;20498;-91
2021/01/14 13:17:51;;;;;;;3.87;3.60;;;4.20;1.00;;;;;;4922174;29;20763;-91
2021/01/14 13:20:19;;;;;;;4.00;3.60;;;4.00;1.00;;;;;;4922115;29;20923;-92
2021/01/14 13:22:46;;;;;;;4.60;4.20;;;3.80;1.00;;;;;;4922162;29;20756;-91
2021/01/14 13:25:13;;;;;;;4.23;3.90;;;3.60;1.00;;;;;;4922061;29;20576;-91
2021/01/14 13:27:43;;;;;;;7.60;5.30;;;3.50;1.00;;;;;;4921447;29;20481;-91
2021/01/14 13:30:13;;;;;;;6.30;4.80;;;3.30;1.00;;;;;;4921312;29;20484;-91
2021/01/14 13:32:42;;;;;;;12.20;6.53;;;3.20;1.00;;;;;;4921909;29;20497;-92
2021/01/14 13:35:10;;;;;;;5.07;3.87;;;3.30;1.00;;;;;;4921519;29;20587;-91
2021/01/14 13:37:38;;;;;;;5.03;4.57;;;3.10;1.00;;;;;;4921485;29;21054;-91
2021/01/14 13:40:06;;;;;;;8.10;4.50;;;3.10;1.00;;;;;;4921526;29;20482;-91
2021/01/14 13:42:33;;;;;;;4.60;3.80;;;3.00;1.00;;;;;;4921709;29;20470;-91
2021/01/14 13:44:59;;;;;;;7.03;3.80;;;2.90;1.00;;;;;;4921431;29;20486;-91
2021/01/14 13:47:26;;;;;;;5.77;4.00;;;2.90;1.00;;;;;;4921575;29;20483;-91
2021/01/14 13:49:53;;;;;;;6.30;4.10;;;2.90;1.00;;;;;;4921620;29;20475;-91
2021/01/14 13:52:21;;;;;;;4.07;3.63;;;3.00;1.00;;;;;;4921259;29;20483;-91
2021/01/14 13:54:49;;;;;;;4.97;4.20;;;2.90;1.00;;;;;;4921438;29;20479;-91
2021/01/14 13:57:16;;;;;;;5.43;3.77;;;2.70;1.00;;;;;;4921562;29;20482;-91
2021/01/14 13:59:43;;;;;;;5.10;4.30;;;2.70;1.00;;;;;;4921110;29;20939;-91
2021/01/14 14:02:10;;;;;;;5.90;4.30;;;2.60;1.00;;;;;;4921168;29;20553;-91
2021/01/14 14:04:39;;;;;;;5.10;3.90;;;2.60;1.00;;;;;;4921254;29;20483;-91
2021/01/14 14:07:06;;;;;;;5.13;3.80;;;2.50;1.00;;;;;;4909913;29;20497;-91
2021/01/14 14:09:36;;;;;;;4.37;3.47;;;2.50;1.00;;;;;;4902397;29;20502;-91
2021/01/14 14:12:07;;;;;;;5.03;4.10;;;2.40;1.00;;;;;;4915315;29;20469;-91
2021/01/14 14:14:34;;;;;;;7.10;4.60;;;2.40;1.00;;;;;;4920727;29;20461;-91
2021/01/14 14:17:03;;;;;;;4.73;4.00;;;2.40;1.00;;;;;;4920841;29;20498;-91
2021/01/14 14:19:30;;;;;;;4.70;4.30;;;2.40;1.00;;;;;;4921145;29;20479;-91
2021/01/14 14:21:57;;;;;;;5.60;4.20;;;2.40;1.00;;;;;;4920904;29;20828;-91
2021/01/14 14:24:24;;;;;;;5.13;3.73;;;2.40;1.00;;;;;;4920815;29;20482;-91
2021/01/14 14:26:51;;;;;;;5.47;4.70;;;2.20;1.00;;;;;;4921157;29;20576;-91
2021/01/14 14:29:19;;;;;;;6.20;4.50;;;2.10;1.00;;;;;;4920670;29;20775;-91
2021/01/14 14:31:49;;;;;;;4.33;3.93;;;2.10;1.00;;;;;;4902428;29;20466;-91
2021/01/14 14:34:17;;;;;;;4.43;4.03;;;2.10;1.00;;;;;;4902080;29;20797;-91
2021/01/14 14:36:46;;;;;;;9.70;4.73;;;2.00;1.00;;;;;;4902244;29;20472;-91
2021/01/14 14:39:13;;;;;;;4.93;4.37;;;2.00;1.00;;;;;;4904088;29;20482;-91
2021/01/14 14:41:40;;;;;;;7.70;4.83;;;2.00;1.00;;;;;;4904011;29;20930;-91
2021/01/14 14:44:07;;;;;;;5.17;4.07;;;2.00;1.00;;;;;;4905379;29;20474;-91
2021/01/14 14:46:36;;;;;;;5.23;4.67;;;2.00;1.00;;;;;;4905689;29;20770;-91
2021/01/14 14:49:03;;;;;;;5.43;4.40;;;1.90;1.00;;;;;;4906481;29;20490;-91
2021/01/14 14:51:32;;;;;;;6.10;4.80;;;1.90;1.00;;;;;;4905749;29;20471;-91
2021/01/14 14:53:59;;;;;;;7.33;5.27;;;1.90;1.00;;;;;;4905774;29;20441;-91
2021/01/14 14:56:26;;;;;;;6.40;4.70;;;1.90;1.00;;;;;;4905435;29;20501;-91
2021/01/14 14:58:52;;;;;;;7.03;4.73;;;1.80;1.00;;;;;;4905569;29;20470;-91
2021/01/14 15:01:21;;;;;;;5.77;5.00;;;1.80;1.00;;;;;;4905797;29;20453;-91
2021/01/14 15:03:52;;;;;;;6.70;4.60;;;1.80;1.00;;;;;;4905833;29;20580;-91
2021/01/14 15:06:20;;;;;;;5.00;4.50;;;1.70;1.00;;;;;;4905103;29;20471;-92
2021/01/14 15:08:49;;;;;;;8.77;4.90;;;1.70;1.00;;;;;;4905157;29;20481;-92
2021/01/14 15:11:17;;;;;;;5.63;4.80;;;1.60;1.00;;;;;;4922725;29;20618;-92
2021/01/14 15:13:48;;;;;;;10.80;5.93;;;1.60;1.00;;;;;;4924376;29;20533;-92
2021/01/14 15:16:16;;;;;;;6.00;5.50;;;1.50;15.80;;;;;;4916645;29;20499;-92
2021/01/14 15:18:45;;;;;;;8.03;4.97;;;1.50;36.60;;;;;;4905513;29;20538;-91
2021/01/14 15:21:17;;;;;;;6.43;5.83;;;1.40;59.30;;;;;;4905242;29;20455;-92
2021/01/14 15:23:47;;;;;;;7.73;6.07;;;1.40;85.60;;;;;;4905675;29;20452;-91
2021/01/14 15:26:16;;;;;;;10.00;5.30;;;1.30;95.80;;;;;;4905721;29;20477;-91
2021/01/14 15:28:46;;;;;;;9.10;5.87;;;1.30;99.90;;;;;;4905305;29;20461;-92
2021/01/14 15:31:13;;;;;;;9.53;5.70;;;1.20;99.90;;;;;;4905554;29;20465;-91
2021/01/14 15:33:40;;;;;;;7.97;6.27;;;1.20;99.90;;;;;;4905060;29;20849;-91
2021/01/14 15:36:15;;;;;;;6.57;5.97;;;1.20;99.90;;;;;;4905115;29;20497;-92
2021/01/14 15:38:44;;;;;;;6.20;5.70;;;1.20;99.90;;;;;;4905150;29;20473;-91
2021/01/14 15:41:11;;;;;;;9.93;5.60;;;1.20;99.90;;;;;;4905079;29;20485;-91
2021/01/14 15:43:38;;;;;;;7.57;5.80;;;1.10;99.90;;;;;;4905100;29;20470;-91
2021/01/14 15:46:08;;;;;;;9.60;6.20;;;1.10;99.90;;;;;;4905154;29;20502;-91
2021/01/14 15:48:35;;;;;;;7.50;5.60;;;1.10;99.90;;;;;;4904759;29;20478;-91
2021/01/14 15:51:02;;;;;;;6.97;6.27;;;1.00;99.90;;;;;;4904499;29;20475;-91
2021/01/14 15:53:29;;;;;;;6.60;5.60;;;1.00;99.90;;;;;;4905203;29;20488;-92
2021/01/14 16:05:00;;;;;;;7.50;6.13;;;0.90;99.90;;;;;;4952408;28;20597;-91
2021/01/14 16:07:28;;;;;;;11.90;7.03;;;0.90;99.90;;;;;;4907795;29;20598;-91
2021/01/14 16:09:58;;;;;;;9.07;6.47;;;0.80;99.90;;;;;;4908540;29;20591;-91
2021/01/14 16:12:28;;;;;;;11.00;7.13;;;0.70;99.90;;;;;;4904345;29;20791;-91
2021/01/14 16:14:55;;;;;;;10.70;7.07;;;0.70;99.90;;;;;;4904672;29;20506;-91
2021/01/14 16:17:22;;;;;;;12.30;6.43;;;0.70;1.00;;;;;;4903973;29;20586;-91
2021/01/14 16:19:52;;;;;;;7.10;6.40;;;0.60;1.00;;;;;;4915035;29;20457;-92
2021/01/14 16:22:20;;;;;;;9.10;5.90;;;0.60;1.00;;;;;;4922903;29;20492;-91
2021/01/14 16:24:50;;;;;;;11.20;7.03;;;0.50;1.00;;;;;;4922807;29;20478;-92
2021/01/14 16:27:18;;;;;;;10.60;7.30;;;0.50;29.90;;;;;;4914680;29;20452;-92
2021/01/14 16:29:45;;;;;;;16.03;7.83;;;0.50;99.90;;;;;;4910791;29;20474;-92
2021/01/14 16:32:13;;;;;;;11.87;7.73;;;0.50;99.90;;;;;;4922792;29;20480;-92
2021/01/14 16:34:40;;;;;;;7.93;6.40;;;0.50;99.90;;;;;;4911414;29;20498;-92
2021/01/14 16:37:08;;;;;;;8.47;7.40;;;0.40;99.90;;;;;;4904077;29;20504;-92
2021/01/14 16:39:38;;;;;;;11.10;7.33;;;0.40;99.90;;;;;;4903725;29;20525;-92
2021/01/14 16:42:08;;;;;;;10.43;7.43;;;0.40;1.00;;;;;;4909153;29;20476;-92
2021/01/14 16:44:37;;;;;;;15.23;8.03;;;0.40;1.00;;;;;;4924747;29;20465;-92
2021/01/14 16:47:07;;;;;;;9.63;7.90;;;0.30;1.00;;;;;;4941511;29;20478;-92
2021/01/14 16:49:36;;;;;;;9.90;8.00;;;0.30;1.00;;;;;;4941810;29;20467;-92
2021/01/14 16:52:08;;;;;;;15.50;9.53;;;0.40;80.20;;;;;;4928311;29;20499;-92
2021/01/14 16:54:39;;;;;;;10.73;9.00;;;0.40;87.60;;;;;;4922255;29;20473;-91
2021/01/14 16:57:08;;;;;;;11.33;7.30;;;0.40;38.20;;;;;;4922430;29;20508;-91
2021/01/14 16:59:35;;;;;;;13.23;8.80;;;0.40;60.40;;;;;;4922217;29;20477;-91
2021/01/14 17:02:03;;;;;;;16.87;12.40;;;0.30;86.40;;;;;;4921988;29;20474;-91
2021/01/14 17:04:34;;;;;;;22.97;15.20;;;0.30;99.90;;;;;;4920777;29;20480;-91
2021/01/14 17:07:04;;;;;;;21.43;14.67;;;0.30;99.90;;;;;;4922114;29;20489;-91
2021/01/14 17:09:36;;;;;;;18.33;13.77;;;0.30;99.90;;;;;;4921282;29;20776;-91
2021/01/14 17:12:03;;;;;;;17.10;12.73;;;0.30;1.00;;;;;;4921993;29;20483;-91
2021/01/14 17:14:31;;;;;;;16.67;12.00;;;0.20;1.00;;;;;;4921910;29;20461;-91
2021/01/14 17:17:00;;;;;;;11.90;9.87;;;0.20;1.00;;;;;;4922216;29;20494;-91
2021/01/14 17:22:14;;;;;;;10.90;7.03;;;0.20;1.00;;;;;;4909436;29;20444;-91
2021/01/14 17:24:51;;;;;;;8.50;7.70;;;0.20;1.00;;;;;;4921202;29;20476;-91
2021/01/14 17:27:18;;;;;;;8.37;7.57;;;0.20;1.00;;;;;;4922067;29;20465;-91
2021/01/14 17:29:47;;;;;;;10.00;7.67;;;0.20;1.00;;;;;;4921728;29;20497;-91
2021/01/14 17:32:15;;;;;;;8.93;7.00;;;0.30;1.00;;;;;;4922005;29;20584;-91
2021/01/14 17:34:42;;;;;;;9.10;6.90;;;0.20;1.00;;;;;;4904890;29;20471;-89
2021/01/14 17:37:18;;;;;;;8.10;7.10;;;0.20;1.00;;;;;;4921522;29;20557;-91
2021/01/14 17:39:48;;;;;;;9.67;7.97;;;0.20;99.90;;;;;;4921422;29;20496;-90
2021/01/14 17:48:23;;;;;;;11.27;7.93;;;0.20;99.90;;;;;;4932292;29;20447;-90
2021/01/14 17:50:50;;;;;;;7.20;6.40;;;0.30;99.90;;;;;;4940293;29;20245;-90
2021/01/14 17:56:27;;;;;;;7.17;5.80;;;0.20;1.00;;;;;;4912299;29;20893;-90
2021/01/14 17:58:55;;;;;;;8.93;6.80;;;0.20;1.00;;;;;;4940413;29;20543;-90
2021/01/14 18:01:22;;;;;;;9.37;7.00;;;0.20;1.00;;;;;;4940223;29;20458;-90
2021/01/14 18:03:52;;;;;;;9.27;6.70;;;0.20;1.00;;;;;;4939898;29;20460;-90
2021/01/14 18:06:31;;;;;;;6.63;5.93;;;0.20;1.00;;;;;;4940481;29;20535;-90
2021/01/14 18:09:17;;;;;;;8.60;6.97;;;0.20;99.90;;;;;;4940289;29;21753;-90
2021/01/14 18:11:45;;;;;;;8.40;6.50;;;0.10;99.90;;;;;;4932565;29;20478;-90
2021/01/14 18:14:12;;;;;;;6.50;5.90;;;0.10;1.00;;;;;;4939787;29;20522;-90
2021/01/14 18:16:39;;;;;;;8.53;6.50;;;0.10;1.00;;;;;;4939957;29;20551;-90
2021/01/14 18:19:06;;;;;;;7.90;6.47;;;0.10;1.00;;;;;;4939967;29;20957;-90
2021/01/14 18:21:33;;;;;;;6.87;6.27;;;0.00;1.00;;;;;;4939848;29;20535;-90
2021/01/14 18:24:00;;;;;;;7.87;7.07;;;0.10;1.00;;;;;;4939868;29;20467;-90
2021/01/14 18:26:32;;;;;;;7.83;6.90;;;0.00;1.00;;;;;;4924802;29;20829;-90
2021/01/14 18:29:01;;;;;;;8.30;6.77;;;0.00;1.00;;;;;;4921341;29;20934;-90
2021/01/14 18:31:27;;;;;;;7.67;6.50;;;0.00;1.00;;;;;;4920933;29;20903;-90
2021/01/14 18:33:55;;;;;;;7.00;6.07;;;0.00;1.00;;;;;;4920692;29;20469;-90
2021/01/14 18:36:24;;;;;;;8.70;6.57;;;0.00;1.00;;;;;;4921178;29;20499;-90
2021/01/14 18:38:51;;;;;;;7.90;6.23;;;0.00;1.00;;;;;;4920627;29;20501;-90
2021/01/14 18:41:21;;;;;;;9.10;7.03;;;0.00;1.00;;;;;;4920911;29;20532;-90
2021/01/14 18:43:48;;;;;;;11.80;7.20;;;0.00;1.00;;;;;;4920616;29;20770;-90
2021/01/14 18:46:15;;;;;;;9.27;6.60;;;0.00;99.90;;;;;;4921289;29;20447;-90
2021/01/14 18:48:42;;;;;;;8.83;6.53;;;0.00;99.90;;;;;;4920205;29;20544;-90
2021/01/14 18:51:11;;;;;;;7.40;5.87;;;-0.10;99.90;;;;;;4920360;29;20462;-90
2021/01/14 18:53:48;;;;;;;6.83;5.80;;;-0.10;99.90;;;;;;4920554;29;20481;-90
2021/01/14 18:56:25;;;;;;;9.43;5.90;;;-0.20;99.90;;;;;;4920571;29;20591;-90
2021/01/14 18:58:52;;;;;;;7.97;6.10;;;-0.10;99.90;;;;;;4920901;29;20563;-90
2021/01/14 19:01:20;;;;;;;6.33;5.73;;;-0.10;99.90;;;;;;4920864;29;20477;-90
2021/01/14 19:03:47;;;;;;;6.83;5.43;;;-0.10;99.90;;;;;;4921164;29;20517;-90
2021/01/14 19:06:14;;;;;;;8.07;6.13;;;-0.10;99.90;;;;;;4920942;29;20556;-90
2021/01/14 19:08:42;;;;;;;7.83;5.47;;;-0.20;99.90;;;;;;4920351;29;20546;-90
2021/01/14 19:11:08;;;;;;;6.53;5.60;;;-0.20;99.90;;;;;;4919412;29;20568;-90
2021/01/14 19:13:35;;;;;;;8.70;5.60;;;-0.20;99.90;;;;;;4930106;29;20467;-90
2021/01/14 19:16:02;;;;;;;8.20;6.23;;;-0.20;99.90;;;;;;4924735;29;20503;-90